Hacienda Margarita, Puerto Rico
Current Conditions -  °F | °C
As of 7:53 PM on Wednesday 26 Nov 2014 (Local Time) from TJNR Reporting Station
Scattered Clouds Scattered Clouds  
Wind Chill: 80°   Ceiling: Unl
Heat Index: 84°   Visibility: 10mi
Dew Point: 73°   Wind: 9mph
Humidity: 79%   Direction: 80°E
Pressure: 30.04"   Gusts: NA
Location:  18.3744°N, 65.7168°W
Report Text: TJNR 262353Z AUTO 08008KT 10SM SCT080 27/23 A3004 RMK AO2 SLP171 T02670228 10300 20261 51011 $
Loading
Personal Weather Stations






























Interactive Weather Map New forecast layout! Learn more

10-Day Weather Forecast

Advertisements
Track Severe Weather on mobile